Time;durP1;ratioP1;P1;durP2;ratioP2;P2;SDS_P1;SDS_P2;PMS_P1;PMS_P2;Temp;Humidity;BMP_temperature;BMP_pressure;BME280_temperature;BME280_humidity;BME280_pressure;Samples;Min_cycle;Max_cycle;Signal;HPM_P1;HPM_P2
2024/01/08 00:01:35;;;;;;;4.43;2.47;;;;;;;-3.77;100.00;97650.09;5068052;28;20044;-63
2024/01/08 00:04:03;;;;;;;5.72;2.47;;;;;;;-3.79;100.00;97652.88;5058598;28;20120;-62
2024/01/08 00:06:33;;;;;;;5.38;2.47;;;;;;;-3.75;100.00;97645.50;5066996;28;20572;-62
2024/01/08 00:08:59;;;;;;;3.83;2.30;;;;;;;-3.76;100.00;97648.28;5057860;28;20032;-62
2024/01/08 00:11:26;;;;;;;3.55;2.00;;;;;;;-3.81;100.00;97654.03;5062323;28;20071;-62
2024/01/08 00:13:53;;;;;;;4.90;2.60;;;;;;;-3.81;100.00;97646.94;5059478;28;20044;-63
2024/01/08 00:16:20;;;;;;;5.70;2.80;;;;;;;-3.83;100.00;97648.88;5059605;28;20092;-62
2024/01/08 00:18:46;;;;;;;5.25;2.63;;;;;;;-3.81;100.00;97649.59;5061945;28;20048;-62
2024/01/08 00:21:13;;;;;;;6.05;2.75;;;;;;;-3.61;100.00;97651.22;5058756;28;20095;-62
2024/01/08 00:23:40;;;;;;;5.15;2.65;;;;;;;-3.60;100.00;97653.72;5065710;28;20419;-63
2024/01/08 00:26:06;;;;;;;4.43;2.38;;;;;;;-3.59;100.00;97655.38;5057152;28;20343;-63
2024/01/08 00:28:33;;;;;;;5.53;2.47;;;;;;;-3.57;100.00;97650.72;5054098;28;20040;-62
2024/01/08 00:30:59;;;;;;;4.82;2.55;;;;;;;-3.58;100.00;97650.91;5047070;28;20299;-63
2024/01/08 00:33:26;;;;;;;4.93;2.25;;;;;;;-3.63;100.00;97659.31;5065689;28;20049;-62
2024/01/08 00:35:53;;;;;;;6.32;3.35;;;;;;;-3.66;100.00;97655.16;5058744;28;20036;-63
2024/01/08 00:38:19;;;;;;;5.20;2.60;;;;;;;-3.73;100.00;97662.03;5058991;28;20051;-62
2024/01/08 00:40:47;;;;;;;6.25;3.10;;;;;;;-3.69;100.00;97657.28;5063703;28;20052;-62
2024/01/08 00:43:13;;;;;;;4.38;2.53;;;;;;;-3.71;100.00;97657.44;5050547;28;20385;-62
2024/01/08 00:45:40;;;;;;;6.00;2.88;;;;;;;-3.64;100.00;97648.88;5066910;28;20040;-62
2024/01/08 00:48:06;;;;;;;5.57;2.65;;;;;;;-3.74;100.00;97655.09;5057015;28;20045;-62
2024/01/08 00:50:33;;;;;;;7.00;3.45;;;;;;;-3.76;100.00;97656.22;5052337;28;20068;-62
2024/01/08 00:53:00;;;;;;;7.35;2.83;;;;;;;-3.77;100.00;97658.03;5044289;28;20044;-62
2024/01/08 00:55:26;;;;;;;7.05;3.00;;;;;;;-3.79;100.00;97660.84;5052815;28;20045;-62
2024/01/08 00:57:54;;;;;;;5.85;2.92;;;;;;;-3.79;100.00;97660.03;5041972;28;20049;-62
2024/01/08 01:00:21;;;;;;;5.45;2.95;;;;;;;-3.79;100.00;97652.88;5045080;28;20113;-62
2024/01/08 01:02:47;;;;;;;5.95;2.42;;;;;;;-3.76;100.00;97654.41;5042212;28;20057;-62
2024/01/08 01:05:14;;;;;;;5.13;2.70;;;;;;;-3.79;100.00;97658.19;5046462;28;20093;-62
2024/01/08 01:07:41;;;;;;;5.05;2.95;;;;;;;-3.72;100.00;97661.03;5052104;28;20048;-63
2024/01/08 01:10:08;;;;;;;4.82;2.50;;;;;;;-3.74;100.00;97656.91;5047369;28;20290;-62
2024/01/08 01:12:35;;;;;;;4.95;2.60;;;;;;;-3.64;100.00;97654.16;5048162;28;20295;-63
2024/01/08 01:15:01;;;;;;;6.90;3.33;;;;;;;-3.72;100.00;97662.88;5051782;28;20191;-62
2024/01/08 01:17:28;;;;;;;4.25;2.40;;;;;;;-3.75;100.00;97660.53;5051305;28;20033;-63
2024/01/08 01:19:54;;;;;;;4.40;2.20;;;;;;;-3.67;100.00;97666.75;5045850;28;20069;-62
2024/01/08 01:22:21;;;;;;;5.38;2.70;;;;;;;-3.59;100.00;97660.66;5049459;28;20053;-62
2024/01/08 01:24:47;;;;;;;5.78;2.67;;;;;;;-3.71;100.00;97670.66;5046786;28;20516;-62
2024/01/08 01:27:14;;;;;;;5.25;3.00;;;;;;;-3.59;100.00;97670.41;5045246;28;20405;-63
2024/01/08 01:29:40;;;;;;;4.03;2.45;;;;;;;-3.69;100.00;97670.53;5040712;28;20430;-63
2024/01/08 01:32:07;;;;;;;4.22;2.50;;;;;;;-3.74;100.00;97676.25;5042657;28;20045;-62
2024/01/08 01:34:34;;;;;;;6.18;3.05;;;;;;;-3.73;100.00;97671.81;5049402;28;20044;-63
2024/01/08 01:37:01;;;;;;;5.53;2.60;;;;;;;-3.67;100.00;97676.47;5047740;28;20044;-63
2024/01/08 01:39:29;;;;;;;3.80;2.15;;;;;;;-3.59;100.00;97667.75;5046119;28;20580;-62
2024/01/08 01:41:55;;;;;;;4.78;2.38;;;;;;;-3.70;100.00;97672.31;5036504;28;20547;-62
2024/01/08 01:44:22;;;;;;;4.40;2.55;;;;;;;-3.74;100.00;97675.41;5046374;28;20111;-63
2024/01/08 01:46:49;;;;;;;5.55;3.20;;;;;;;-3.72;100.00;97676.94;5044209;28;20051;-62
2024/01/08 01:49:17;;;;;;;6.85;3.03;;;;;;;-3.66;100.00;97673.69;5045334;28;20041;-62
2024/01/08 01:51:46;;;;;;;6.03;2.85;;;;;;;-3.65;100.00;97671.84;5044897;28;20042;-63
2024/01/08 01:54:22;;;;;;;5.28;3.10;;;;;;;-3.61;100.00;97672.41;5042034;28;20050;-62
2024/01/08 01:57:09;;;;;;;6.28;2.72;;;;;;;-3.69;100.00;97676.63;5042631;28;20049;-62
2024/01/08 01:59:36;;;;;;;5.90;2.80;;;;;;;-3.69;100.00;97678.47;5047672;28;20037;-62
2024/01/08 02:02:04;;;;;;;6.53;2.85;;;;;;;-3.67;100.00;97671.19;5044371;28;20033;-62
2024/01/08 02:04:30;;;;;;;5.28;2.75;;;;;;;-3.57;100.00;97669.25;5049335;28;20049;-62
2024/01/08 02:06:59;;;;;;;5.45;3.13;;;;;;;-3.60;100.00;97663.47;5042043;28;20041;-63
2024/01/08 02:09:26;;;;;;;5.50;3.15;;;;;;;-3.59;100.00;97659.81;5049120;28;20124;-63
2024/01/08 02:11:53;;;;;;;4.97;2.55;;;;;;;-3.60;100.00;97663.47;5044684;28;20037;-62
2024/01/08 02:14:20;;;;;;;5.82;3.00;;;;;;;-3.54;100.00;97657.56;5043329;28;20037;-62
2024/01/08 02:16:48;;;;;;;4.80;2.35;;;;;;;-3.50;100.00;97660.72;5036580;28;20059;-62
2024/01/08 02:19:14;;;;;;;5.85;3.10;;;;;;;-3.60;100.00;97656.38;5046003;28;20046;-62
2024/01/08 02:21:41;;;;;;;5.78;3.08;;;;;;;-3.64;100.00;97655.00;5046374;28;20229;-62
2024/01/08 02:24:08;;;;;;;5.90;2.95;;;;;;;-3.62;100.00;97653.03;5035488;28;20047;-62
2024/01/08 02:26:36;;;;;;;6.25;3.00;;;;;;;-3.62;100.00;97650.38;5024146;28;20052;-62
2024/01/08 02:29:03;;;;;;;5.55;3.20;;;;;;;-3.59;100.00;97651.88;5036072;28;20128;-62
2024/01/08 02:31:30;;;;;;;4.80;3.00;;;;;;;-3.61;100.00;97645.94;5044195;28;20038;-62
2024/01/08 02:33:57;;;;;;;4.18;2.67;;;;;;;-3.63;100.00;97648.72;5042057;28;20044;-62
2024/01/08 02:36:24;;;;;;;5.13;3.50;;;;;;;-3.45;100.00;97646.03;5039216;28;20045;-63
2024/01/08 02:38:50;;;;;;;5.15;2.97;;;;;;;-3.44;100.00;97652.16;5051568;28;20131;-63
2024/01/08 02:41:17;;;;;;;4.68;3.10;;;;;;;-3.37;100.00;97650.53;5039888;28;20046;-63
2024/01/08 02:43:43;;;;;;;5.80;3.13;;;;;;;-3.40;100.00;97650.84;5039929;28;20033;-63
2024/01/08 02:46:10;;;;;;;6.13;3.05;;;;;;;-3.52;100.00;97647.63;5039671;28;20037;-63
2024/01/08 02:48:36;;;;;;;8.13;3.42;;;;;;;-3.56;100.00;97652.41;5034262;28;20065;-63
2024/01/08 02:51:03;;;;;;;5.47;2.97;;;;;;;-3.56;100.00;97648.94;5035140;28;20112;-63
2024/01/08 02:53:30;;;;;;;5.40;3.13;;;;;;;-3.54;100.00;97657.56;5041885;28;20118;-62
2024/01/08 02:55:56;;;;;;;6.47;3.70;;;;;;;-3.53;100.00;97654.72;5039176;28;20388;-62
2024/01/08 02:58:23;;;;;;;7.85;4.18;;;;;;;-3.60;100.00;97655.53;5041007;28;20086;-63
2024/01/08 03:00:49;;;;;;;6.53;3.53;;;;;;;-3.64;100.00;97656.81;5037374;28;20493;-63
2024/01/08 03:03:16;;;;;;;6.18;3.78;;;;;;;-3.60;100.00;97656.38;5042296;28;20115;-63
2024/01/08 03:05:43;;;;;;;7.50;3.63;;;;;;;-3.60;100.00;97661.66;5040428;28;20048;-63
2024/01/08 03:08:09;;;;;;;7.75;3.45;;;;;;;-3.60;100.00;97663.47;5039927;28;20346;-62
2024/01/08 03:10:36;;;;;;;5.45;2.97;;;;;;;-3.58;100.00;97664.16;5038738;28;20604;-62
2024/01/08 03:13:02;;;;;;;6.90;3.67;;;;;;;-3.57;100.00;97676.41;5037931;28;20051;-62
2024/01/08 03:15:29;;;;;;;5.70;3.30;;;;;;;-3.60;100.00;97671.41;5040064;28;20120;-63
2024/01/08 03:17:56;;;;;;;6.85;3.30;;;;;;;-3.54;100.00;97678.75;5040499;28;20044;-63
2024/01/08 03:20:22;;;;;;;6.60;3.65;;;;;;;-3.50;100.00;97674.81;5038431;28;20041;-63
2024/01/08 03:22:51;;;;;;;7.75;3.42;;;;;;;-3.53;100.00;97675.91;5036218;28;20033;-63
2024/01/08 03:25:18;;;;;;;6.50;3.22;;;;;;;-3.56;100.00;97670.94;5036203;28;20045;-62
2024/01/08 03:27:45;;;;;;;7.18;3.80;;;;;;;-3.56;100.00;97675.41;5039326;28;20087;-62
2024/01/08 03:30:12;;;;;;;7.05;3.53;;;;;;;-3.61;100.00;97667.91;5043712;28;20603;-62
2024/01/08 03:32:39;;;;;;;7.03;3.75;;;;;;;-3.49;100.00;97657.91;5031918;28;20041;-63
2024/01/08 03:35:06;;;;;;;5.65;3.42;;;;;;;-3.48;100.00;97661.38;5039984;28;20131;-62
2024/01/08 03:37:32;;;;;;;6.30;4.18;;;;;;;-3.51;100.00;97651.94;5039368;28;20045;-62
2024/01/08 03:40:02;;;;;;;5.70;2.78;;;;;;;-3.47;100.00;97655.13;5042057;28;20044;-63
2024/01/08 03:42:28;;;;;;;6.60;3.33;;;;;;;-3.47;100.00;97660.41;5038453;28;20116;-62
2024/01/08 03:44:55;;;;;;;7.28;3.88;;;;;;;-3.53;100.00;97660.03;5037730;28;20048;-62
2024/01/08 03:47:21;;;;;;;6.38;3.75;;;;;;;-3.52;100.00;97660.88;5033842;28;20041;-62
2024/01/08 03:49:48;;;;;;;8.93;4.00;;;;;;;-3.56;100.00;97662.16;5032359;28;20068;-62
2024/01/08 03:52:14;;;;;;;6.85;3.83;;;;;;;-3.51;100.00;97662.53;5041937;28;20729;-62
2024/01/08 03:54:41;;;;;;;8.05;4.28;;;;;;;-3.49;100.00;97662.38;5034369;28;20040;-62
2024/01/08 03:57:07;;;;;;;5.03;3.00;;;;;;;-3.48;100.00;97659.59;5034007;28;20112;-62
2024/01/08 03:59:34;;;;;;;6.78;3.90;;;;;;;-3.48;100.00;97661.38;5035616;28;20051;-62
2024/01/08 04:02:01;;;;;;;6.03;3.75;;;;;;;-3.51;100.00;97659.88;5036856;28;20047;-62
2024/01/08 04:04:27;;;;;;;7.15;4.20;;;;;;;-3.50;100.00;97660.72;5045229;28;20505;-62
2024/01/08 04:06:55;;;;;;;8.13;4.15;;;;;;;-3.56;100.00;97660.38;5038642;28;20535;-62
2024/01/08 04:09:22;;;;;;;6.20;3.50;;;;;;;-3.50;100.00;97660.72;5046038;28;20051;-63
2024/01/08 04:11:49;;;;;;;5.18;3.03;;;;;;;-3.47;100.00;97658.59;5043661;28;20041;-62
2024/01/08 04:14:15;;;;;;;5.57;3.25;;;;;;;-3.37;100.00;97653.19;5033062;28;20477;-62
2024/01/08 04:16:42;;;;;;;5.03;3.10;;;;;;;-3.37;100.00;97662.94;5043724;28;20045;-63
2024/01/08 04:19:08;;;;;;;6.25;3.35;;;;;;;-3.30;100.00;97664.00;5033457;28;20609;-62
2024/01/08 04:21:35;;;;;;;5.78;3.47;;;;;;;-3.46;100.00;97662.06;5044265;28;20454;-63
2024/01/08 04:24:02;;;;;;;7.60;3.95;;;;;;;-3.44;100.00;97660.09;5043346;28;20315;-63
2024/01/08 04:26:28;;;;;;;7.70;3.65;;;;;;;-3.47;100.00;97665.72;5037929;28;20037;-62
2024/01/08 04:28:55;;;;;;;6.82;3.35;;;;;;;-3.45;100.00;97661.09;5043231;28;20508;-63
2024/01/08 04:31:22;;;;;;;4.55;2.88;;;;;;;-3.39;100.00;97668.41;5040475;28;20083;-61
2024/01/08 04:33:52;;;;;;;5.10;2.83;;;;;;;-3.39;100.00;97673.72;5036190;28;20555;-61
2024/01/08 04:36:19;;;;;;;5.05;2.70;;;;;;;-3.54;100.00;97665.50;5039430;28;20041;-61
2024/01/08 04:38:45;;;;;;;5.97;2.70;;;;;;;-3.53;100.00;97661.88;5043789;28;20657;-61
2024/01/08 04:41:21;;;;;;;4.70;3.15;;;;;;;-3.53;100.00;97665.31;5044389;28;20049;-61
2024/01/08 04:43:48;;;;;;;6.03;3.35;;;;;;;-3.56;100.00;97664.81;5042938;28;20044;-61
2024/01/08 04:46:16;;;;;;;4.85;3.00;;;;;;;-3.51;100.00;97667.81;5039460;28;20076;-61
2024/01/08 04:48:42;;;;;;;7.82;3.65;;;;;;;-3.47;100.00;97678.97;5042113;28;20051;-61
2024/01/08 04:51:20;;;;;;;6.05;3.20;;;;;;;-3.35;100.00;97680.38;5047161;28;20067;-61
2024/01/08 04:53:46;;;;;;;7.65;3.47;;;;;;;-3.41;100.00;97683.63;5037892;28;20041;-61
2024/01/08 04:56:24;;;;;;;8.68;4.10;;;;;;;-3.53;100.00;97685.69;5044327;28;20095;-61
2024/01/08 04:58:54;;;;;;;5.72;3.58;;;;;;;-3.53;100.00;97685.69;5041146;28;20036;-61
2024/01/08 05:01:21;;;;;;;5.47;3.40;;;;;;;-3.56;100.00;97692.13;5037982;28;20041;-61
2024/01/08 05:03:48;;;;;;;7.68;3.58;;;;;;;-3.69;100.00;97691.69;5043287;28;20069;-61
2024/01/08 05:06:16;;;;;;;6.70;3.60;;;;;;;-3.78;100.00;97693.44;5038076;28;20464;-61
2024/01/08 05:08:43;;;;;;;5.75;3.03;;;;;;;-3.75;100.00;97692.28;5038800;28;20040;-61
2024/01/08 05:11:10;;;;;;;5.57;3.13;;;;;;;-3.75;100.00;97702.88;5039324;28;20041;-61
2024/01/08 05:13:39;;;;;;;4.93;2.90;;;;;;;-3.75;100.00;97698.44;5038586;28;20114;-61
2024/01/08 05:16:06;;;;;;;8.15;3.83;;;;;;;-3.80;100.00;97701.53;5044004;28;20041;-61
2024/01/08 05:18:32;;;;;;;5.63;3.33;;;;;;;-3.86;100.00;97694.19;5039170;28;20048;-63
2024/01/08 05:20:59;;;;;;;5.05;3.20;;;;;;;-3.75;100.00;97689.66;5038785;28;20069;-61
2024/01/08 05:23:26;;;;;;;5.28;3.17;;;;;;;-3.82;100.00;97694.72;5045635;28;20103;-61
2024/01/08 05:25:53;;;;;;;5.95;3.20;;;;;;;-3.79;100.00;97703.16;5042767;28;20052;-62
2024/01/08 05:28:19;;;;;;;5.50;3.08;;;;;;;-3.73;100.00;97704.38;5043151;28;20041;-63
2024/01/08 05:30:46;;;;;;;6.20;3.58;;;;;;;-3.77;100.00;97702.22;5043097;28;20140;-63
2024/01/08 05:33:12;;;;;;;7.65;4.05;;;;;;;-3.62;100.00;97707.78;5043177;28;20038;-63
2024/01/08 05:35:40;;;;;;;6.13;3.25;;;;;;;-3.77;100.00;97710.97;5043744;28;20052;-63
2024/01/08 05:38:07;;;;;;;6.63;3.05;;;;;;;-3.88;100.00;97704.09;5044825;28;20167;-61
2024/01/08 05:40:34;;;;;;;4.78;2.75;;;;;;;-3.92;100.00;97700.91;5042766;28;20370;-63
2024/01/08 05:43:00;;;;;;;5.68;3.25;;;;;;;-3.88;100.00;97705.91;5041296;28;20049;-63
2024/01/08 05:45:27;;;;;;;5.82;3.40;;;;;;;-3.93;100.00;97714.28;5043660;28;20044;-63
2024/01/08 05:47:54;;;;;;;5.97;3.35;;;;;;;-3.94;100.00;97707.34;5042231;28;20045;-63
2024/01/08 05:50:27;;;;;;;6.43;3.30;;;;;;;-3.87;100.00;97715.50;5038038;28;20044;-63
2024/01/08 05:52:54;;;;;;;8.20;3.88;;;;;;;-3.89;100.00;97715.66;5034301;28;20037;-63
2024/01/08 05:55:22;;;;;;;5.70;3.92;;;;;;;-3.89;100.00;97718.31;5037488;28;20057;-60
2024/01/08 05:57:49;;;;;;;7.30;3.95;;;;;;;-3.92;100.00;97719.44;5044913;28;20056;-63
2024/01/08 06:00:16;;;;;;;7.35;3.50;;;;;;;-3.92;100.00;97719.44;5038509;28;20037;-63
2024/01/08 06:02:43;;;;;;;8.10;4.13;;;;;;;-3.91;100.00;97722.91;5039148;28;20035;-63
2024/01/08 06:05:10;;;;;;;6.35;3.75;;;;;;;-3.99;100.00;97715.72;5037450;28;20119;-61
2024/01/08 06:07:40;;;;;;;7.07;3.65;;;;;;;-3.89;100.00;97728.03;5032553;28;20162;-62
2024/01/08 06:10:06;;;;;;;8.82;4.00;;;;;;;-3.83;100.00;97727.47;5042278;28;20063;-62
2024/01/08 06:12:33;;;;;;;6.68;3.75;;;;;;;-3.88;100.00;97730.53;5044365;28;20403;-62
2024/01/08 06:14:59;;;;;;;7.13;3.75;;;;;;;-3.90;100.00;97726.38;5041941;28;20051;-63
2024/01/08 06:17:26;;;;;;;8.18;4.45;;;;;;;-3.92;100.00;97732.66;5039572;28;20080;-62
2024/01/08 06:19:53;;;;;;;6.65;3.95;;;;;;;-3.93;100.00;97724.88;5037947;28;20055;-62
2024/01/08 06:22:19;;;;;;;7.22;4.10;;;;;;;-3.88;100.00;97724.44;5044110;28;20073;-63
2024/01/08 06:24:46;;;;;;;6.63;3.92;;;;;;;-3.94;100.00;97729.31;5041631;28;20037;-62
2024/01/08 06:27:12;;;;;;;6.20;3.85;;;;;;;-3.92;100.00;97729.19;5038574;28;20048;-62
2024/01/08 06:29:39;;;;;;;7.68;4.25;;;;;;;-3.93;100.00;97727.53;5036848;28;20044;-62
2024/01/08 06:32:06;;;;;;;8.52;3.97;;;;;;;-4.00;100.00;97723.81;5041172;28;20493;-62
2024/01/08 06:34:32;;;;;;;9.50;4.30;;;;;;;-4.06;100.00;97733.16;5033297;28;20076;-62
2024/01/08 06:36:59;;;;;;;4.80;3.13;;;;;;;-4.09;100.00;97722.91;5037751;28;20044;-62
2024/01/08 06:39:26;;;;;;;7.45;4.32;;;;;;;-4.01;100.00;97730.09;5044333;28;20420;-62
2024/01/08 06:41:52;;;;;;;6.55;3.70;;;;;;;-4.00;100.00;97732.59;5042268;28;20041;-64
2024/01/08 06:44:19;;;;;;;5.65;3.38;;;;;;;-4.08;100.00;97724.56;5039580;28;20045;-64
2024/01/08 06:46:46;;;;;;;5.63;3.05;;;;;;;-4.08;100.00;97728.06;5037422;28;20045;-64
2024/01/08 06:49:12;;;;;;;7.20;3.15;;;;;;;-4.09;100.00;97726.38;5039665;28;20524;-64
2024/01/08 06:51:43;;;;;;;5.22;3.05;;;;;;;-4.10;100.00;97732.66;5039988;28;20045;-64
2024/01/08 06:54:09;;;;;;;5.60;2.95;;;;;;;-4.06;100.00;97728.72;5038313;28;20059;-64
2024/01/08 06:56:36;;;;;;;5.60;3.30;;;;;;;-3.95;100.00;97732.13;5043181;28;20048;-64
2024/01/08 06:59:03;;;;;;;7.55;3.63;;;;;;;-4.00;100.00;97729.09;5038279;28;20056;-64
2024/01/08 07:01:31;;;;;;;6.88;3.95;;;;;;;-3.98;100.00;97735.91;5037829;28;20071;-64
2024/01/08 07:03:57;;;;;;;7.88;4.40;;;;;;;-3.95;100.00;97737.41;5041656;28;20549;-64
2024/01/08 07:06:24;;;;;;;7.35;3.75;;;;;;;-3.97;100.00;97740.22;5039732;28;20044;-64
2024/01/08 07:08:51;;;;;;;7.97;3.70;;;;;;;-3.93;100.00;97740.75;5039923;28;20041;-64
2024/01/08 07:11:22;;;;;;;7.32;4.13;;;;;;;-3.99;100.00;97738.72;5036072;28;20052;-64
2024/01/08 07:13:49;;;;;;;7.82;3.80;;;;;;;-4.00;100.00;97740.53;5036863;28;20045;-64
2024/01/08 07:16:17;;;;;;;7.43;3.70;;;;;;;-4.02;100.00;97741.66;5034840;28;20398;-64
2024/01/08 07:18:45;;;;;;;7.00;3.53;;;;;;;-4.02;100.00;97746.94;5032211;28;20140;-64
2024/01/08 07:21:16;;;;;;;7.75;4.18;;;;;;;-3.90;100.00;97742.25;5035243;28;20652;-64
2024/01/08 07:23:44;;;;;;;11.27;3.97;;;;;;;-3.93;100.00;97751.34;5035774;28;20041;-64
2024/01/08 07:26:14;;;;;;;7.10;4.03;;;;;;;-4.00;100.00;97740.53;5034591;28;20060;-64
2024/01/08 07:28:45;;;;;;;7.95;3.35;;;;;;;-3.95;100.00;97738.25;5039078;28;20059;-64
2024/01/08 07:31:12;;;;;;;6.25;3.47;;;;;;;-3.98;100.00;97741.19;5027966;28;20045;-64
2024/01/08 07:33:41;;;;;;;5.68;3.60;;;;;;;-4.01;100.00;97748.59;5031614;28;20044;-64
2024/01/08 07:36:09;;;;;;;6.75;3.42;;;;;;;-4.00;100.00;97751.09;5036596;28;20111;-64
2024/01/08 07:38:36;;;;;;;5.97;3.25;;;;;;;-4.00;100.00;97755.56;5040114;28;20033;-64
2024/01/08 07:41:03;;;;;;;6.07;3.80;;;;;;;-4.01;100.00;97756.53;5041321;28;20057;-64
2024/01/08 07:43:30;;;;;;;7.50;3.92;;;;;;;-4.03;100.00;97755.88;5037560;28;20068;-64
2024/01/08 07:45:57;;;;;;;9.63;3.95;;;;;;;-4.10;100.00;97764.38;5032453;28;20234;-64
2024/01/08 07:48:24;;;;;;;6.55;3.63;;;;;;;-4.01;100.00;97757.38;5040053;28;20044;-63
2024/01/08 07:50:50;;;;;;;7.55;3.80;;;;;;;-3.98;100.00;97765.00;5037391;28;20053;-62
2024/01/08 07:53:17;;;;;;;5.70;3.10;;;;;;;-3.95;100.00;97767.34;5029003;28;20038;-62
2024/01/08 07:55:44;;;;;;;6.85;3.60;;;;;;;-3.92;100.00;97771.50;5040458;28;20037;-63
2024/01/08 07:58:13;;;;;;;7.38;3.83;;;;;;;-3.89;100.00;97771.22;5038097;28;20053;-63
2024/01/08 08:00:43;;;;;;;6.13;3.10;;;;;;;-3.87;100.00;97773.72;5037280;28;20041;-62
2024/01/08 08:03:09;;;;;;;7.68;3.50;;;;;;;-3.89;100.00;97773.03;5035629;28;20045;-62
2024/01/08 08:05:36;;;;;;;5.43;3.20;;;;;;;-3.74;100.00;97778.63;5045526;28;20041;-63
2024/01/08 08:08:03;;;;;;;7.57;3.63;;;;;;;-3.87;100.00;97779.81;5044774;28;20045;-63
2024/01/08 08:10:30;;;;;;;7.65;3.53;;;;;;;-3.93;100.00;97785.72;5041647;28;20042;-63
2024/01/08 08:12:56;;;;;;;5.70;3.55;;;;;;;-3.95;100.00;97780.59;5040323;28;20037;-63
2024/01/08 08:15:23;;;;;;;6.85;3.22;;;;;;;-3.88;100.00;97775.53;5042948;28;20593;-63
2024/01/08 08:17:50;;;;;;;6.03;3.30;;;;;;;-3.76;100.00;97776.13;5041647;28;20049;-63
2024/01/08 08:20:18;;;;;;;6.45;3.42;;;;;;;-3.84;100.00;97773.44;5037048;28;20057;-62
2024/01/08 08:22:44;;;;;;;7.78;3.80;;;;;;;-3.85;100.00;97775.22;5039247;28;20116;-62
2024/01/08 08:25:16;;;;;;;7.55;3.67;;;;;;;-3.77;100.00;97771.00;5042036;28;20045;-62
2024/01/08 08:27:42;;;;;;;8.00;4.18;;;;;;;-3.87;100.00;97768.44;5038499;28;20055;-63
2024/01/08 08:30:12;;;;;;;8.43;4.10;;;;;;;-3.93;100.00;97772.50;5038981;28;20127;-62
2024/01/08 08:32:42;;;;;;;8.98;4.13;;;;;;;-3.83;100.00;97770.59;5039851;28;20033;-63
2024/01/08 08:35:08;;;;;;;6.13;3.67;;;;;;;-3.80;100.00;97775.59;5031688;28;20044;-63
2024/01/08 08:37:36;;;;;;;8.98;5.03;;;;;;;-3.76;100.00;97775.31;5039128;28;20046;-62
2024/01/08 08:40:18;;;;;;;6.60;3.88;;;;;;;-3.70;100.00;97782.63;5044618;28;20807;-62
2024/01/08 08:42:44;;;;;;;6.63;3.58;;;;;;;-3.73;100.00;97780.31;5046069;28;20033;-63
2024/01/08 08:45:11;;;;;;;7.28;3.80;;;;;;;-3.80;100.00;97783.56;5037494;28;20067;-62
2024/01/08 08:47:37;;;;;;;7.03;3.47;;;;;;;-3.76;100.00;97791.19;5040823;28;20048;-63
2024/01/08 08:50:05;;;;;;;7.28;3.58;;;;;;;-3.65;100.00;97790.97;5036142;28;20584;-62
2024/01/08 08:52:31;;;;;;;8.50;4.32;;;;;;;-3.64;100.00;97784.69;5037573;28;20047;-62
2024/01/08 08:54:58;;;;;;;9.05;3.63;;;;;;;-3.56;100.00;97795.38;5039597;28;20059;-63
2024/01/08 08:57:24;;;;;;;8.98;3.65;;;;;;;-3.56;100.00;97802.47;5045696;28;20139;-63
2024/01/08 08:59:51;;;;;;;6.57;3.20;;;;;;;-3.59;100.00;97800.97;5042812;28;20045;-62
2024/01/08 09:02:18;;;;;;;6.00;3.28;;;;;;;-3.57;100.00;97803.47;5037341;28;20048;-62
2024/01/08 09:04:45;;;;;;;6.30;3.08;;;;;;;-3.53;100.00;97807.47;5043981;28;20095;-63
2024/01/08 09:07:11;;;;;;;5.43;3.50;;;;;;;-3.56;100.00;97802.47;5043320;28;20060;-63
2024/01/08 09:09:38;;;;;;;6.03;3.30;;;;;;;-3.57;100.00;97808.75;5035044;28;20052;-62
2024/01/08 09:12:05;;;;;;;6.63;3.35;;;;;;;-3.63;100.00;97809.34;5034337;28;20063;-63
2024/01/08 09:14:32;;;;;;;8.05;3.67;;;;;;;-3.74;100.00;97816.53;5041620;28;20049;-62
2024/01/08 09:16:58;;;;;;;6.70;3.42;;;;;;;-3.58;100.00;97813.22;5044268;28;20127;-62
2024/01/08 09:19:25;;;;;;;5.60;3.40;;;;;;;-3.59;100.00;97808.06;5032682;28;20136;-62
2024/01/08 09:21:51;;;;;;;7.82;3.60;;;;;;;-3.46;100.00;97818.28;5042175;28;20057;-63
2024/01/08 09:24:18;;;;;;;6.93;3.40;;;;;;;-3.46;100.00;97826.22;5041029;28;20038;-61
2024/01/08 09:26:45;;;;;;;6.57;3.60;;;;;;;-3.38;100.00;97825.47;5038707;28;20033;-48
2024/01/08 09:29:12;;;;;;;6.00;3.10;;;;;;;-3.40;100.00;97828.25;5043809;28;20068;-63
2024/01/08 09:31:39;;;;;;;5.95;3.10;;;;;;;-3.38;100.00;97826.31;5044954;28;20060;-63
2024/01/08 09:34:06;;;;;;;7.65;3.83;;;;;;;-3.30;100.00;97834.34;5049562;28;20048;-63
2024/01/08 09:36:32;;;;;;;9.52;4.47;;;;;;;-3.41;100.00;97831.91;5053109;28;20046;-62
2024/01/08 09:38:59;;;;;;;9.82;4.25;;;;;;;-3.49;100.00;97842.41;5047072;28;20044;-63
2024/01/08 09:41:26;;;;;;;5.65;3.38;;;;;;;-3.47;99.18;97835.97;5056709;28;20047;-63
2024/01/08 09:43:57;;;;;;;6.13;3.08;;;;;;;-3.54;99.21;97843.69;5048589;28;20040;-62
2024/01/08 09:46:26;;;;;;;6.68;3.22;;;;;;;-3.44;100.00;97843.63;5040421;28;20045;-63
2024/01/08 09:48:54;;;;;;;5.65;2.97;;;;;;;-3.37;98.55;97843.00;5049646;28;20123;-62
2024/01/08 09:51:22;;;;;;;6.22;3.22;;;;;;;-3.37;99.16;97841.22;5042412;28;20840;-63
2024/01/08 09:53:50;;;;;;;5.78;2.95;;;;;;;-3.35;97.91;97841.91;5054281;28;20052;-63
2024/01/08 09:56:18;;;;;;;5.57;3.28;;;;;;;-3.49;98.97;97839.75;5052310;28;20651;-63
2024/01/08 09:58:45;;;;;;;6.20;3.60;;;;;;;-3.57;99.94;97837.88;5036459;28;20049;-62
2024/01/08 10:01:12;;;;;;;6.53;3.30;;;;;;;-3.51;100.00;97841.75;5032262;28;20689;-63
2024/01/08 10:03:38;;;;;;;7.10;4.15;;;;;;;-3.48;99.91;97844.91;5043299;28;20047;-63
2024/01/08 10:06:09;;;;;;;6.30;3.30;;;;;;;-3.44;99.55;97838.34;5043321;28;20048;-63
2024/01/08 10:08:36;;;;;;;6.22;3.65;;;;;;;-3.43;99.34;97834.69;5045916;28;20068;-63
2024/01/08 10:11:04;;;;;;;6.47;3.28;;;;;;;-3.48;98.94;97836.97;5051295;28;20658;-63
2024/01/08 10:13:31;;;;;;;5.80;3.17;;;;;;;-3.59;100.00;97839.81;5041631;28;20703;-62
2024/01/08 10:15:58;;;;;;;6.53;3.55;;;;;;;-3.55;100.00;97835.91;5048315;28;20127;-62
2024/01/08 10:18:24;;;;;;;6.68;3.45;;;;;;;-3.63;100.00;97841.09;5041053;28;20045;-63
2024/01/08 10:21:09;;;;;;;6.00;3.75;;;;;;;-3.51;99.93;97844.38;5055135;28;20560;-63
2024/01/08 10:23:36;;;;;;;6.63;3.30;;;;;;;-3.55;99.11;97835.91;5046191;28;20068;-62
2024/01/08 10:26:03;;;;;;;8.68;3.85;;;;;;;-3.43;100.00;97840.00;5036883;28;20045;-63
2024/01/08 10:28:37;;;;;;;6.63;3.53;;;;;;;-3.45;98.39;97830.53;5036856;28;20055;-63
2024/01/08 10:31:08;;;;;;;8.45;3.72;;;;;;;-3.42;98.99;97832.88;5035420;28;20046;-63
2024/01/08 10:33:35;;;;;;;7.95;3.78;;;;;;;-3.36;100.00;97839.41;5035464;28;20130;-63
2024/01/08 10:36:04;;;;;;;6.05;3.30;;;;;;;-3.32;98.97;97830.16;5034561;28;20116;-62
2024/01/08 10:38:32;;;;;;;7.82;3.75;;;;;;;-3.39;98.64;97835.25;5021910;28;20046;-63
2024/01/08 10:41:01;;;;;;;6.88;3.25;;;;;;;-3.42;97.57;97835.53;5038514;28;20037;-63
2024/01/08 10:43:28;;;;;;;6.18;3.20;;;;;;;-3.36;98.01;97836.75;5039869;28;20133;-63
2024/01/08 10:46:00;;;;;;;7.93;3.92;;;;;;;-3.25;98.41;97841.00;5036967;28;20142;-63
2024/01/08 10:48:38;;;;;;;5.72;3.17;;;;;;;-3.39;98.02;97829.94;5044306;28;20116;-63
2024/01/08 10:51:07;;;;;;;6.25;3.42;;;;;;;-3.47;97.87;97833.31;5038863;28;20045;-63
2024/01/08 10:53:40;;;;;;;6.57;3.75;;;;;;;-3.45;96.83;97836.69;5040723;28;20519;-63
2024/01/08 10:56:12;;;;;;;6.85;3.40;;;;;;;-3.36;95.90;97823.50;5049406;28;20809;-63
2024/01/08 10:58:47;;;;;;;5.15;2.92;;;;;;;-3.44;95.87;97834.84;5042234;28;20986;-63
2024/01/08 11:01:14;;;;;;;7.18;3.60;;;;;;;-3.31;96.63;97837.94;5043615;28;20059;-63
2024/01/08 11:03:41;;;;;;;6.32;3.25;;;;;;;-3.34;94.62;97840.91;5051917;28;20041;-63
2024/01/08 11:06:07;;;;;;;5.05;2.78;;;;;;;-3.43;94.54;97839.19;5048573;28;20040;-63
2024/01/08 11:08:34;;;;;;;8.18;3.25;;;;;;;-3.35;93.98;97828.66;5050468;28;20040;-63
2024/01/08 11:11:10;;;;;;;5.95;3.03;;;;;;;-3.40;93.79;97834.41;5046150;28;20044;-63
2024/01/08 11:13:40;;;;;;;5.15;3.03;;;;;;;-3.47;94.36;97828.03;5047763;28;20044;-63
2024/01/08 11:16:08;;;;;;;6.50;3.03;;;;;;;-3.35;94.19;97828.66;5025413;28;20052;-63
2024/01/08 11:18:37;;;;;;;5.50;3.33;;;;;;;-3.28;95.04;97832.34;5045460;28;20052;-64
2024/01/08 11:21:05;;;;;;;6.75;3.65;;;;;;;-3.22;92.75;97822.97;5046246;28;20045;-64
2024/01/08 11:23:40;;;;;;;6.18;3.35;;;;;;;-3.17;93.96;97827.81;5050999;28;20519;-63
2024/01/08 11:26:20;;;;;;;6.05;3.17;;;;;;;-3.06;92.58;97824.09;5045822;28;20059;-63
2024/01/08 11:29:02;;;;;;;6.68;3.25;;;;;;;-3.13;91.42;97814.09;5034899;28;20048;-63